createdAt,value
2018-06-21T00:01:07.742Z,9.10
2018-06-21T00:04:41.027Z,9.37
2018-06-21T00:08:14.308Z,9.70
2018-06-21T00:11:47.565Z,11.00
2018-06-21T00:15:20.831Z,9.70
2018-06-21T00:18:54.309Z,11.20
2018-06-21T00:22:28.473Z,9.90
2018-06-21T00:26:01.735Z,10.73
2018-06-21T00:29:35.043Z,10.93
2018-06-21T00:33:08.768Z,9.87
2018-06-21T00:36:42.532Z,10.17
2018-06-21T00:40:15.863Z,10.33
2018-06-21T00:43:49.136Z,11.27
2018-06-21T00:47:22.421Z,12.47
2018-06-21T00:50:55.391Z,10.97
2018-06-21T00:54:28.636Z,12.13
2018-06-21T00:58:01.903Z,11.50
2018-06-21T01:01:35.143Z,10.63
2018-06-21T01:05:08.919Z,12.27
2018-06-21T01:08:42.826Z,10.87
2018-06-21T01:12:22.404Z,10.57
2018-06-21T01:15:55.652Z,11.50
2018-06-21T01:19:28.896Z,10.87
2018-06-21T01:23:02.114Z,10.63
2018-06-21T01:26:35.333Z,9.20
2018-06-21T01:30:08.528Z,10.20
2018-06-21T01:33:41.767Z,9.90
2018-06-21T01:37:15.018Z,12.07
2018-06-21T01:40:48.256Z,10.33
2018-06-21T01:44:21.480Z,10.90
2018-06-21T01:47:54.694Z,11.93
2018-06-21T01:51:27.673Z,11.57
2018-06-21T01:55:01.011Z,11.90
2018-06-21T01:58:34.249Z,11.70
2018-06-21T02:02:07.503Z,12.60
2018-06-21T02:05:40.719Z,12.47
2018-06-21T02:09:14.112Z,12.77
2018-06-21T02:12:47.360Z,13.23
2018-06-21T02:16:20.604Z,12.20
2018-06-21T02:19:53.828Z,13.57
2018-06-21T02:23:27.075Z,11.97
2018-06-21T02:27:00.317Z,12.17
2018-06-21T02:30:34.080Z,12.73
2018-06-21T02:34:07.839Z,12.10
2018-06-21T02:37:41.072Z,11.80
2018-06-21T02:41:14.314Z,12.30
2018-06-21T02:44:47.537Z,12.40
2018-06-21T02:48:20.779Z,12.03
2018-06-21T02:51:54.063Z,14.47
2018-06-21T02:55:27.270Z,14.13
2018-06-21T02:59:00.519Z,14.30
2018-06-21T03:02:33.756Z,13.97
2018-06-21T03:06:07.502Z,14.90
2018-06-21T03:09:40.756Z,15.20
2018-06-21T03:13:13.977Z,15.80
2018-06-21T03:16:47.227Z,15.03
2018-06-21T03:20:20.452Z,15.67
2018-06-21T03:23:53.686Z,14.33
2018-06-21T03:27:26.908Z,12.47
2018-06-21T03:31:00.127Z,13.33
2018-06-21T03:34:33.348Z,13.17
2018-06-21T03:38:06.616Z,13.90
2018-06-21T03:41:39.815Z,13.50
2018-06-21T03:45:13.060Z,13.80
2018-06-21T03:48:46.331Z,15.70
2018-06-21T03:52:19.696Z,15.33
2018-06-21T03:55:53.454Z,15.60
2018-06-21T03:59:26.686Z,16.10
2018-06-21T04:02:59.935Z,14.80
2018-06-21T04:06:33.416Z,15.67
2018-06-21T04:10:06.771Z,16.20
2018-06-21T04:13:40.047Z,15.17
2018-06-21T04:17:13.283Z,15.70
2018-06-21T04:20:46.538Z,16.17
2018-06-21T04:24:19.838Z,14.77
2018-06-21T04:27:53.096Z,14.90
2018-06-21T04:31:26.368Z,15.63
2018-06-21T04:34:59.604Z,15.83
2018-06-21T04:38:32.880Z,16.97
2018-06-21T04:42:06.199Z,17.63
2018-06-21T04:45:39.956Z,16.73
2018-06-21T04:49:13.196Z,16.80
2018-06-21T04:52:46.498Z,14.60
2018-06-21T04:56:19.735Z,16.17
2018-06-21T04:59:52.992Z,17.60
2018-06-21T05:03:26.219Z,15.70
2018-06-21T05:06:59.524Z,16.10
2018-06-21T05:10:32.771Z,16.80
2018-06-21T05:14:06.127Z,17.60
2018-06-21T05:17:39.379Z,16.30
2018-06-21T05:21:12.665Z,15.20
2018-06-21T05:24:45.935Z,18.17
2018-06-21T05:28:19.151Z,15.73
2018-06-21T05:31:52.378Z,15.57
2018-06-21T05:35:25.674Z,16.70
2018-06-21T05:38:58.921Z,15.87
2018-06-21T05:42:32.196Z,14.50
2018-06-21T05:46:05.405Z,14.87
2018-06-21T05:49:38.625Z,15.63
2018-06-21T05:53:11.867Z,14.63
2018-06-21T05:56:45.161Z,14.77
2018-06-21T06:00:18.359Z,14.20
2018-06-21T06:03:51.674Z,13.97
2018-06-21T06:07:24.928Z,13.63
2018-06-21T06:10:58.152Z,11.50
2018-06-21T06:14:31.447Z,12.10
2018-06-21T06:18:04.445Z,12.70
2018-06-21T06:21:39.438Z,11.90
2018-06-21T06:25:12.679Z,12.50
2018-06-21T06:28:46.581Z,12.13
2018-06-21T06:32:19.715Z,10.60
2018-06-21T06:35:54.536Z,9.23
2018-06-21T06:39:27.798Z,10.07
2018-06-21T06:43:01.011Z,9.30
2018-06-21T06:46:34.003Z,8.20
2018-06-21T06:50:07.479Z,8.47
2018-06-21T06:53:40.713Z,7.77
2018-06-21T06:57:13.695Z,8.13
2018-06-21T07:00:47.480Z,8.73
2018-06-21T07:04:21.010Z,8.03
2018-06-21T07:07:54.249Z,7.03
2018-06-21T07:11:28.345Z,7.07
2018-06-21T07:15:01.343Z,7.00
2018-06-21T07:18:34.319Z,6.53
2018-06-21T07:22:08.170Z,6.10
2018-06-21T07:25:41.424Z,6.83
2018-06-21T07:29:14.659Z,6.97
2018-06-21T07:32:48.185Z,7.50
2018-06-21T07:36:21.422Z,6.60
2018-06-21T07:39:54.720Z,5.90
2018-06-21T07:43:27.948Z,5.63
2018-06-21T07:47:01.142Z,6.00
2018-06-21T07:50:34.369Z,5.73
2018-06-21T07:54:07.358Z,5.80
2018-06-21T07:57:40.595Z,5.93
2018-06-21T08:01:13.823Z,5.47
2018-06-21T08:04:47.109Z,5.20
2018-06-21T08:08:20.351Z,6.80
2018-06-21T08:11:53.589Z,5.33
2018-06-21T08:15:26.836Z,5.23
2018-06-21T08:19:00.103Z,6.60
2018-06-21T08:22:33.387Z,4.57
2018-06-21T08:26:06.602Z,5.43
2018-06-21T08:29:39.835Z,4.47
2018-06-21T08:33:12.815Z,5.33
2018-06-21T08:36:46.105Z,5.10
2018-06-21T08:40:19.411Z,4.33
2018-06-21T08:43:52.642Z,5.70
2018-06-21T08:47:25.623Z,4.63
2018-06-21T08:50:58.645Z,4.80
2018-06-21T08:54:31.929Z,4.77
2018-06-21T08:58:05.290Z,4.20
2018-06-21T09:01:38.521Z,4.57
2018-06-21T09:05:11.797Z,4.40
2018-06-21T09:08:45.054Z,6.63
2018-06-21T09:12:18.426Z,5.03
2018-06-21T09:15:51.425Z,4.70
2018-06-21T09:19:24.419Z,5.77
2018-06-21T09:22:57.668Z,8.23
2018-06-21T09:26:30.904Z,6.83
2018-06-21T09:30:04.245Z,4.20
2018-06-21T09:33:37.646Z,4.13
2018-06-21T09:37:10.886Z,5.23
2018-06-21T09:40:49.427Z,5.17
2018-06-21T09:44:29.791Z,3.90
2018-06-21T09:48:08.337Z,3.97
2018-06-21T09:51:41.333Z,6.83
2018-06-21T09:55:14.342Z,4.30
2018-06-21T09:58:47.609Z,5.00
2018-06-21T10:02:20.839Z,3.93
2018-06-21T10:05:54.098Z,4.40
2018-06-21T10:09:27.371Z,4.97
2018-06-21T10:13:00.626Z,5.63
2018-06-21T10:16:33.880Z,8.53
2018-06-21T10:20:07.264Z,5.73
2018-06-21T10:23:40.498Z,4.27
2018-06-21T10:27:13.765Z,4.40
2018-06-21T10:30:47.039Z,11.33
2018-06-21T10:34:20.275Z,4.73
2018-06-21T10:37:53.520Z,5.60
2018-06-21T10:41:26.784Z,8.27
2018-06-21T10:45:00.049Z,4.53
2018-06-21T10:48:33.289Z,5.10
2018-06-21T10:52:06.638Z,4.17
2018-06-21T10:55:39.869Z,7.20
2018-06-21T10:59:13.121Z,6.20
2018-06-21T11:02:46.336Z,4.50
2018-06-21T11:06:19.579Z,5.00
2018-06-21T11:09:52.803Z,6.27
2018-06-21T11:13:26.044Z,4.67
2018-06-21T11:16:59.293Z,9.30
2018-06-21T11:20:32.811Z,5.97
2018-06-21T11:24:06.154Z,5.90
2018-06-21T11:27:39.514Z,5.67
2018-06-21T11:31:12.693Z,6.93
2018-06-21T11:34:45.921Z,6.03
2018-06-21T11:38:19.164Z,6.47
2018-06-21T11:41:52.516Z,5.83
2018-06-21T11:45:25.762Z,6.17
2018-06-21T11:48:58.995Z,6.57
2018-06-21T11:52:32.223Z,9.13
2018-06-21T11:56:05.615Z,5.23
2018-06-21T11:59:38.861Z,4.80
2018-06-21T12:03:12.104Z,4.70
2018-06-21T12:06:45.347Z,8.93
2018-06-21T12:10:18.560Z,5.20
2018-06-21T12:13:51.790Z,5.07
2018-06-21T12:17:25.065Z,4.20
2018-06-21T12:20:58.297Z,3.80
2018-06-21T12:24:31.547Z,4.37
2018-06-21T12:28:04.863Z,5.20
2018-06-21T12:31:38.096Z,2.40
2018-06-21T12:35:11.337Z,2.60
2018-06-21T12:38:44.329Z,5.10
2018-06-21T12:42:17.554Z,4.33
2018-06-21T12:45:50.805Z,3.37
2018-06-21T12:49:24.072Z,4.23
2018-06-21T12:52:57.268Z,3.47
2018-06-21T12:56:30.539Z,3.53
2018-06-21T13:00:04.144Z,5.20
2018-06-21T13:03:37.402Z,6.40
2018-06-21T13:07:11.449Z,4.57
2018-06-21T13:10:56.020Z,2.87
2018-06-21T13:14:29.264Z,3.83
2018-06-21T13:18:02.526Z,3.23
2018-06-21T13:21:35.810Z,5.43
2018-06-21T13:25:09.680Z,5.13
2018-06-21T13:28:42.968Z,2.80
2018-06-21T13:32:16.249Z,3.63
2018-06-21T13:35:49.487Z,2.80
2018-06-21T13:39:22.792Z,2.87
2018-06-21T13:42:56.038Z,3.53
2018-06-21T13:46:29.271Z,2.97
2018-06-21T13:50:02.573Z,3.17
2018-06-21T13:53:35.783Z,4.30
2018-06-21T13:57:09.004Z,7.70
2018-06-21T14:00:42.264Z,5.23
2018-06-21T14:04:15.478Z,4.90
2018-06-21T14:07:48.785Z,6.50
2018-06-21T14:11:22.042Z,7.30
2018-06-21T14:14:55.268Z,10.00
2018-06-21T14:18:28.491Z,6.50
2018-06-21T14:22:01.736Z,6.93
2018-06-21T14:25:35.195Z,5.37
2018-06-21T14:29:08.439Z,6.33
2018-06-21T14:32:41.448Z,5.80
2018-06-21T14:36:14.673Z,5.47
2018-06-21T14:39:48.247Z,6.20
2018-06-21T14:43:21.549Z,5.10
2018-06-21T14:46:54.935Z,5.37
2018-06-21T14:50:27.935Z,4.60
2018-06-21T14:54:01.200Z,3.73
2018-06-21T14:57:34.446Z,3.07
2018-06-21T15:01:07.672Z,3.50
2018-06-21T15:04:40.932Z,4.20
2018-06-21T15:08:13.955Z,7.80
2018-06-21T15:11:47.192Z,4.30
2018-06-21T15:15:20.503Z,6.73
2018-06-21T15:18:53.755Z,4.93
2018-06-21T15:22:26.967Z,4.10
2018-06-21T15:26:00.221Z,3.90
2018-06-21T15:29:33.207Z,3.80
2018-06-21T15:33:06.448Z,6.60
2018-06-21T15:36:39.737Z,6.07
2018-06-21T15:40:13.034Z,6.50
2018-06-21T15:43:46.260Z,7.00
2018-06-21T15:47:19.524Z,7.83
2018-06-21T15:50:53.094Z,7.90
2018-06-21T15:54:26.321Z,8.80
2018-06-21T15:57:59.675Z,8.17
2018-06-21T16:01:32.928Z,8.40
2018-06-21T16:05:05.909Z,8.33
2018-06-21T16:08:39.133Z,8.73
2018-06-21T16:12:12.444Z,9.80
2018-06-21T16:15:47.207Z,9.23
2018-06-21T16:19:20.427Z,7.63
2018-06-21T16:22:53.743Z,6.93
2018-06-21T16:26:27.568Z,7.23
2018-06-21T16:30:05.286Z,7.30
2018-06-21T16:33:56.409Z,7.30
2018-06-21T16:43:22.144Z,14.80
2018-06-21T16:46:55.493Z,9.83
2018-06-21T16:50:33.088Z,4.20
2018-06-21T16:54:06.569Z,8.77
2018-06-21T16:57:39.767Z,4.03
2018-06-21T17:01:13.016Z,6.47
2018-06-21T17:04:46.232Z,2.90
2018-06-21T17:08:19.486Z,4.97
2018-06-21T17:11:52.777Z,7.80
2018-06-21T17:15:26.019Z,2.70
2018-06-21T17:18:59.292Z,6.80
2018-06-21T17:22:32.526Z,4.53
2018-06-21T17:26:05.760Z,4.50
2018-06-21T17:29:39.014Z,5.40
2018-06-21T17:33:12.297Z,7.83
2018-06-21T17:36:45.566Z,4.90
2018-06-21T17:40:18.816Z,7.40
2018-06-21T17:43:52.066Z,6.87
2018-06-21T17:47:25.067Z,3.17
2018-06-21T17:50:58.395Z,4.90
2018-06-21T17:54:31.647Z,5.20
2018-06-21T17:58:04.984Z,2.70
2018-06-21T18:01:38.171Z,3.07
2018-06-21T18:05:11.509Z,6.93
2018-06-21T18:12:20.514Z,2.60
2018-06-21T18:15:53.803Z,3.93
2018-06-21T18:19:27.058Z,5.57
2018-06-21T18:23:00.401Z,5.13
2018-06-21T18:26:33.639Z,2.47
2018-06-21T18:30:06.896Z,3.03
2018-06-21T18:33:40.163Z,5.03
2018-06-21T18:37:13.475Z,3.23
2018-06-21T18:40:46.707Z,2.60
2018-06-21T18:44:19.937Z,3.83
2018-06-21T18:47:53.429Z,2.17
2018-06-21T18:51:26.402Z,5.33
2018-06-21T18:54:59.668Z,1.90
2018-06-21T18:58:32.891Z,2.30
2018-06-21T19:02:06.115Z,3.93
2018-06-21T19:05:39.419Z,1.97
2018-06-21T19:09:17.827Z,2.63
2018-06-21T19:12:51.071Z,3.00
2018-06-21T19:16:24.341Z,2.90
2018-06-21T19:19:57.723Z,1.77
2018-06-21T19:23:31.023Z,5.50
2018-06-21T19:27:04.292Z,3.47
2018-06-21T19:30:37.595Z,3.23
2018-06-21T19:34:10.833Z,3.10
2018-06-21T19:37:44.080Z,2.30
2018-06-21T19:41:17.317Z,2.50
2018-06-21T19:44:50.556Z,4.63
2018-06-21T19:48:23.813Z,2.27
2018-06-21T19:51:57.084Z,4.57
2018-06-21T19:55:30.388Z,3.63
2018-06-21T19:59:03.777Z,2.90
2018-06-21T20:02:42.196Z,1.83
2018-06-21T20:06:15.467Z,3.23
2018-06-21T20:09:48.821Z,2.90
2018-06-21T20:13:22.092Z,9.60
2018-06-21T20:16:55.504Z,5.67
2018-06-21T20:20:33.909Z,5.30
2018-06-21T20:24:07.244Z,3.20
2018-06-21T20:27:40.494Z,4.87
2018-06-21T20:31:15.063Z,4.60
2018-06-21T20:34:48.303Z,4.87
2018-06-21T20:38:21.628Z,6.73
2018-06-21T20:41:55.054Z,2.17
2018-06-21T20:45:28.294Z,6.13
2018-06-21T20:49:01.581Z,3.17
2018-06-21T20:52:34.837Z,6.53
2018-06-21T20:56:08.216Z,3.90
2018-06-21T20:59:41.660Z,3.67
2018-06-21T21:03:14.891Z,4.93
2018-06-21T21:06:48.139Z,3.40
2018-06-21T21:10:21.171Z,1.30
2018-06-21T21:13:54.715Z,5.63
2018-06-21T21:17:28.107Z,4.33
2018-06-21T21:21:01.423Z,3.60
2018-06-21T21:24:34.968Z,4.33
2018-06-21T21:28:08.195Z,6.67
2018-06-21T21:31:41.581Z,1.43
2018-06-21T21:35:14.733Z,6.87
2018-06-21T21:38:48.178Z,5.10
2018-06-21T21:42:21.786Z,1.73
2018-06-21T21:45:55.028Z,4.03
2018-06-21T21:49:30.301Z,4.20
2018-06-21T21:53:03.602Z,4.50
2018-06-21T21:56:36.898Z,5.47
2018-06-21T22:00:26.655Z,7.93
2018-06-21T22:03:59.903Z,5.00
2018-06-21T22:07:33.189Z,3.97
2018-06-21T22:11:06.479Z,3.17
2018-06-21T22:14:39.750Z,2.80
2018-06-21T22:18:13.015Z,2.60
2018-06-21T22:21:46.292Z,6.40
2018-06-21T22:25:20.461Z,3.57
2018-06-21T22:28:54.146Z,3.27
2018-06-21T22:32:27.464Z,4.60
2018-06-21T22:36:00.684Z,3.13
2018-06-21T22:39:34.210Z,4.37
2018-06-21T22:43:07.481Z,3.20
2018-06-21T22:46:40.717Z,6.00
2018-06-21T22:50:13.988Z,1.90
2018-06-21T22:53:47.228Z,5.67
2018-06-21T22:57:21.102Z,3.27
2018-06-21T23:00:54.359Z,5.10
2018-06-21T23:04:27.334Z,3.87
2018-06-21T23:08:00.600Z,5.83
2018-06-21T23:11:33.867Z,7.77
2018-06-21T23:15:07.214Z,3.43
2018-06-21T23:18:51.647Z,3.00
2018-06-21T23:22:24.876Z,3.73
2018-06-21T23:25:58.143Z,6.57
2018-06-21T23:29:31.387Z,3.43
2018-06-21T23:33:04.636Z,4.77
2018-06-21T23:36:37.870Z,3.93
2018-06-21T23:40:11.216Z,7.10
2018-06-21T23:43:44.187Z,2.53
2018-06-21T23:47:17.486Z,6.07
2018-06-21T23:50:50.751Z,2.20
2018-06-21T23:54:24.003Z,2.60
2018-06-21T23:57:57.018Z,4.13
